Latest Weather Observations for Kowanyama

IDQ60801

Issued at 8:02 am EST Wednesday 4 May 2016 (issued every 30 minutes, with the page automatically refreshed every 10 minutes)

About weather observations | Map of weather stations | Latest weather observations for QLD | Other Formats
Station Details ID: 029038 Name: KOWANYAMA AIRPORT Lat: -15.48 Lon: 141.75 Height: 9.6 m
Data from the previous 72 hours. | See also: Recent months at Kowanyama
Date/Time
EST
Temp
°C
App
Temp
°C
Dew
Point
Rel
Hum
%
Delta-T
°C
Wind Press
QNH
hPa
Press
MSL
hPa
Rain
since 9 am
mm
Dir
 
Spd
km/h
Gust
km/h
Spd
kts
Gust
kts
04/08:00am 26.3 30.2 24.2 88 1.4 NE 11 17 6 9 1013.3 1013.2 0.0
04/07:30am 24.9 29.6 23.9 94 0.7 NNE 6 9 3 5 1013.2 1013.1 0.0
04/07:00am 24.3 28.5 23.4 95 0.6 NE 7 7 4 4 1012.9 1012.8 0.0
04/06:30am 24.4 28.8 23.5 95 0.6 ENE 6 9 3 5 1012.7 1012.6 0.0
04/06:00am 24.5 28.4 23.6 95 0.6 NE 9 13 5 7 1012.3 1012.2 0.0
04/05:30am 24.5 29.1 24.2 98 0.2 ENE 7 11 4 6 1012.0 1011.9 0.0
04/05:00am 24.1 28.7 24.1 100 0.0 E 7 9 4 5 1011.8 1011.7 0.0
04/04:30am 24.0 28.5 24.0 100 0.0 E 7 9 4 5 1011.9 1011.8 0.0
04/04:00am 23.7 27.7 23.7 100 0.0 ENE 9 11 5 6 1011.9 1011.8 0.0
04/03:30am 23.7 27.7 23.7 100 0.0 ENE 9 17 5 9 1011.7 1011.6 0.0
04/03:00am 23.5 27.7 23.5 100 0.0 NE 7 9 4 5 1011.4 1011.3 0.0
04/02:30am 23.7 29.4 23.7 100 0.0 CALM 0 0 0 0 1011.5 1011.4 0.0
04/02:00am 23.8 29.5 23.8 100 0.0 CALM 0 0 0 0 1011.5 1011.4 0.0
04/01:30am 24.1 29.8 23.8 98 0.2 CALM 0 0 0 0 1011.6 1011.5 0.0
04/01:00am 24.3 30.0 23.8 97 0.3 CALM 0 0 0 0 1012.0 1011.9 0.0
04/12:30am 24.5 30.2 23.8 96 0.5 CALM 0 0 0 0 1012.3 1012.2 0.0
04/12:00am 24.8 30.7 24.1 96 0.5 CALM 0 0 0 0 1012.5 1012.4 0.0
 
Date/Time
EST
Temp
°C
App
Temp
°C
Dew
Point
Rel
Hum
%
Delta-T
°C
Wind Press
QNH
hPa
Press
MSL
hPa
Rain
since 9 am
mm
Dir
 
Spd
km/h
Gust
km/h
Spd
kts
Gust
kts
03/11:30pm 24.7 30.4 23.7 94 0.7 CALM 0 0 0 0 1012.7 1012.6 0.0
03/11:00pm 25.2 30.9 23.8 92 1.0 CALM 0 0 0 0 1012.8 1012.7 0.0
03/10:30pm 25.6 31.4 24.0 91 1.1 CALM 0 0 0 0 1012.9 1012.8 0.0
03/10:00pm 25.7 31.2 24.1 91 1.1 SW 2 6 1 3 1013.0 1012.9 0.0
03/09:30pm 25.8 30.5 24.0 90 1.2 WSW 6 6 3 3 1012.9 1012.8 0.0
03/09:00pm 26.1 30.9 24.1 89 1.4 WSW 6 6 3 3 1012.9 1012.8 0.0
03/08:30pm 26.4 31.1 23.9 86 1.7 W 6 6 3 3 1012.8 1012.7 0.0
03/08:00pm 26.9 31.5 24.2 85 1.9 W 7 7 4 4 1012.2 1012.1 0.0
03/07:30pm 26.9 32.4 23.4 81 2.4 CALM 0 0 0 0 1011.8 1011.7 0.0
03/07:00pm 28.0 32.8 22.9 74 3.5 W 2 6 1 3 1011.3 1011.2 0.0
03/06:30pm 28.7 32.9 23.4 73 3.6 W 7 9 4 5 1011.0 1010.9 0.0
03/06:00pm 29.7 33.6 23.6 69 4.2 W 9 13 5 7 1010.6 1010.5 0.0
03/05:30pm 30.7 33.6 23.9 67 4.7 W 15 24 8 13 1010.3 1010.2 0.0
03/05:00pm 32.3 35.8 24.9 65 5.2 WSW 15 20 8 11 1010.0 1009.9 0.0
03/04:30pm 32.3 35.5 24.9 65 5.2 WSW 17 24 9 13 1009.8 1009.7 0.0
03/04:00pm 33.5 37.2 23.2 54 7.1 ESE 9 15 5 8 1009.7 1009.6 0.0
03/03:30pm 33.3 37.0 23.3 55 6.9 SE 9 13 5 7 1009.8 1009.7 0.0
03/03:00pm 33.7 37.9 23.4 55 7.2 S 7 15 4 8 1010.0 1009.9 0.0
03/02:30pm 34.0 38.3 23.7 55 7.2 SSE 7 17 4 9 1010.3 1010.2 0.0
03/02:00pm 33.1 36.1 23.4 56 6.7 SSE 13 19 7 10 1010.8 1010.7 0.0
03/01:30pm 33.2 36.5 23.2 55 6.9 SSW 11 17 6 9 1011.0 1010.9 0.0
03/01:00pm 34.0 38.5 23.7 55 7.2 NE 6 9 3 5 1011.5 1011.4 0.0
03/12:30pm 32.9 36.6 23.2 56 6.7 SE 9 17 5 9 1012.1 1012.0 0.0
03/12:00pm 34.1 38.5 23.8 55 7.2 NE 7 15 4 8 1012.5 1012.4 0.0
03/11:30am 33.1 37.3 23.4 56 6.7 NNE 7 11 4 6 1013.1 1013.0 0.0
03/11:00am 31.4 35.4 22.7 60 6.0 SSW 6 9 3 5 1013.5 1013.4 0.0
03/10:30am 31.5 34.9 23.3 61 5.7 NNE 11 17 6 9 1013.8 1013.7 0.0
03/10:00am 30.5 34.3 23.4 66 4.9 NE 9 17 5 9 1014.0 1013.9 0.0
03/09:30am 29.7 33.0 23.9 71 4.0 ENE 13 22 7 12 1014.0 1013.9 0.0
03/09:00am 29.2 32.2 23.4 71 4.0 NE 13 20 7 11 1013.9 1013.8 0.0
03/08:30am 27.3 31.6 23.7 81 2.5 E 7 11 4 6 1013.9 1013.8 0.0
03/08:00am 26.3 31.2 24.3 89 1.4 E 6 9 3 5 1013.5 1013.4 0.0
03/07:30am 24.4 28.6 24.1 98 0.2 NNE 9 13 5 7 1012.9 1012.8 0.0
03/07:00am 23.9 28.4 23.7 99 0.1 NE 6 9 3 5 1013.0 1012.9 0.0
03/06:30am 24.2 28.9 23.9 98 0.2 ENE 6 9 3 5 1013.0 1012.9 0.0
03/06:00am 24.5 29.6 24.0 97 0.3 ENE 4 7 2 4 1012.8 1012.7 0.0
03/05:30am 24.6 29.7 24.1 97 0.3 ENE 4 7 2 4 1012.4 1012.3 0.0
03/05:00am 25.0 30.0 24.5 97 0.3 E 6 7 3 4 1012.2 1012.1 0.0
03/04:30am 25.0 30.0 24.8 99 0.1 NE 7 9 4 5 1011.9 1011.8 0.0
03/04:00am 24.9 30.2 24.9 100 0.0 NE 6 9 3 5 1011.6 1011.5 0.0
03/03:30am 24.9 30.2 24.9 100 0.0 NE 6 7 3 4 1011.5 1011.4 0.0
03/03:00am 25.1 30.4 24.9 99 0.1 NNE 6 9 3 5 1011.6 1011.5 0.0
03/02:30am 25.2 30.5 24.9 98 0.2 N 6 7 3 4 1011.7 1011.6 0.0
03/02:00am 25.3 30.4 25.0 98 0.2 NE 7 7 4 4 1012.0 1011.9 0.0
03/01:30am 25.6 30.8 25.1 97 0.3 NNE 7 9 4 5 1012.3 1012.2 0.0
03/01:00am 25.7 31.0 25.2 97 0.3 NNE 7 11 4 6 1012.5 1012.4 0.0
03/12:30am 26.0 31.5 25.3 96 0.5 NE 6 9 3 5 1012.9 1012.8 0.0
03/12:00am 26.0 31.7 25.0 94 0.7 N 4 7 2 4 1012.9 1012.8 0.0
 
Date/Time
EST
Temp
°C
App
Temp
°C
Dew
Point
Rel
Hum
%
Delta-T
°C
Wind Press
QNH
hPa
Press
MSL
hPa
Rain
since 9 am
mm
Dir
 
Spd
km/h
Gust
km/h
Spd
kts
Gust
kts
02/11:30pm 26.4 32.9 25.0 92 1.0 CALM 0 0 0 0 1013.1 1013.0 0.0
02/11:00pm 27.0 33.5 25.0 89 1.4 CALM 0 0 0 0 1013.1 1013.0 0.0
02/10:30pm 27.0 33.5 25.0 89 1.4 CALM 0 0 0 0 1013.0 1012.9 0.0
02/10:00pm 27.3 32.9 24.9 87 1.7 SW 4 9 2 5 1013.1 1013.0 0.0
02/09:30pm 27.7 34.0 25.3 87 1.7 SW 2 7 1 4 1013.1 1013.0 0.0
02/09:00pm 27.5 32.8 24.9 86 1.8 SW 6 7 3 4 1012.9 1012.8 0.0
02/08:30pm 27.7 32.8 24.7 84 2.1 SW 6 9 3 5 1012.7 1012.6 0.0
02/08:00pm 28.1 33.2 24.7 82 2.4 WSW 6 9 3 5 1012.3 1012.2 0.0
02/07:30pm 28.7 33.6 24.7 79 2.8 SW 7 11 4 6 1011.9 1011.8 0.0
02/07:00pm 29.3 33.8 24.6 76 3.3 WSW 9 13 5 7 1011.5 1011.4 0.0
02/06:30pm 30.2 34.2 24.4 71 4.0 WSW 11 17 6 9 1011.1 1011.0 0.0
02/06:00pm 32.5 36.7 23.2 58 6.4 ESE 6 7 3 4 1010.6 1010.5 0.0
02/05:30pm 33.8 37.5 22.6 52 7.7 E 7 11 4 6 1010.1 1010.0 0.0
02/05:00pm 34.3 38.1 22.7 50 8.0 ESE 7 9 4 5 1009.8 1009.7 0.0
02/04:30pm 34.9 37.5 21.9 46 8.9 SE 11 17 6 9 1009.5 1009.4 0.0
02/04:00pm 34.9 38.0 22.2 47 8.7 ENE 9 15 5 8 1009.4 1009.3 0.0
02/03:30pm 35.4 38.4 22.7 47 8.8 ENE 11 20 6 11 1009.3 1009.2 0.0
02/03:00pm 35.2 37.6 22.2 47 8.9 E 13 22 7 12 1009.5 1009.4 0.0
02/02:30pm 34.9 37.3 22.2 47 8.7 E 13 24 7 13 1009.8 1009.7 0.0
02/02:00pm 35.1 37.4 22.8 49 8.5 ESE 15 20 8 11 1010.1 1010.0 0.0
02/01:30pm 34.4 36.5 22.5 50 8.2 ESE 15 20 8 11 1010.5 1010.4 0.0
02/01:00pm 34.2 36.4 22.6 50 8.0 ESE 15 22 8 12 1011.0 1010.9 0.0
02/12:30pm 34.0 35.7 22.4 50 8.0 ESE 17 28 9 15 1011.5 1011.4 0.0
02/12:00pm 34.0 37.2 23.7 55 7.2 E 13 20 7 11 1012.1 1012.0 0.0
02/11:30am 32.5 35.1 22.6 56 6.8 E 13 20 7 11 1012.5 1012.4 0.0
02/11:00am 32.0 33.5 22.7 58 6.4 E 19 28 10 15 1012.8 1012.7 0.0
02/10:30am 31.7 33.7 23.0 60 6.0 E 17 26 9 14 1013.0 1012.9 0.0
02/10:00am 30.9 33.3 23.0 62 5.4 E 15 26 8 14 1013.1 1013.0 0.0
02/09:30am 30.0 32.0 22.9 65 4.9 ENE 17 32 9 17 1013.2 1013.1 0.0
02/09:00am 28.6 30.8 23.3 73 3.6 ENE 17 30 9 16 1013.3 1013.2 0.0
02/08:30am 27.8 30.8 23.4 77 3.0 E 13 20 7 11 1013.4 1013.3 0.0
02/08:00am 26.5 30.0 23.6 84 2.0 E 11 15 6 8 1013.3 1013.2 0.0
02/07:30am 25.2 28.9 23.3 89 1.3 ESE 9 11 5 6 1013.0 1012.9 0.0
02/07:00am 24.5 28.4 22.9 91 1.1 ESE 7 9 4 5 1012.8 1012.7 0.0
02/06:30am 24.5 28.4 22.9 91 1.1 E 7 9 4 5 1012.6 1012.5 0.0
02/06:00am 24.5 28.6 22.9 91 1.1 ENE 6 9 3 5 1012.3 1012.2 0.0
02/05:30am 24.4 28.5 23.0 92 0.9 ENE 6 7 3 4 1012.1 1012.0 0.0
02/05:00am 24.7 29.5 22.9 90 1.2 ESE 2 7 1 4 1011.9 1011.8 0.0
02/04:30am 24.9 29.5 23.1 90 1.2 ENE 4 6 2 3 1011.8 1011.7 0.0
02/04:00am 25.2 29.5 23.3 89 1.3 NE 6 7 3 4 1011.8 1011.7 0.0
02/03:30am 25.4 30.1 23.3 88 1.4 ENE 4 7 2 4 1011.8 1011.7 0.0
02/03:00am 26.0 30.4 23.5 86 1.7 ESE 6 7 3 4 1011.9 1011.8 0.0
02/02:30am 26.1 31.1 23.8 87 1.6 NE 4 6 2 3 1012.0 1011.9 0.0
02/02:00am 26.7 31.6 24.4 87 1.6 SE 6 6 3 3 1012.3 1012.2 0.0
02/01:30am 26.5 32.3 24.5 89 1.4 ESE 2 9 1 5 1012.6 1012.5 0.0
02/01:00am 26.4 32.6 24.6 90 1.2 CALM 0 0 0 0 1012.6 1012.5 0.0
02/12:30am 26.8 32.9 24.5 87 1.6 CALM 0 0 0 0 1012.7 1012.6 0.0
02/12:00am 27.3 32.4 24.6 85 1.9 WNW 6 7 3 4 1013.1 1013.0 0.0
 
Date/Time
EST
Temp
°C
App
Temp
°C
Dew
Point
Rel
Hum
%
Delta-T
°C
Wind Press
QNH
hPa
Press
MSL
hPa
Rain
since 9 am
mm
Dir
 
Spd
km/h
Gust
km/h
Spd
kts
Gust
kts
01/11:30pm 27.6 33.2 24.2 82 2.4 W 2 6 1 3 1013.2 1013.1 0.0
01/11:00pm 28.2 33.4 24.2 79 2.8 SSW 4 7 2 4 1013.3 1013.2 0.0
01/10:30pm 28.4 34.4 24.8 81 2.5 WSW 2 7 1 4 1013.3 1013.2 0.0
01/10:00pm 28.3 33.8 24.7 81 2.5 S 4 9 2 5 1013.0 1012.9 0.0
01/09:30pm 27.4 33.4 24.3 83 2.1 CALM 0 0 0 0 1012.9 1012.8 0.0
01/09:00pm 27.6 33.1 24.0 81 2.5 ENE 2 6 1 3 1012.7 1012.6 0.0
01/08:30pm 27.8 33.2 23.8 79 2.8 NE 2 6 1 3 1012.5 1012.4 0.0
01/08:00pm 28.5 34.3 23.9 76 3.2 CALM 0 0 0 0 1012.0 1011.9 0.0
01/07:30pm 29.0 34.3 23.7 73 3.7 NNE 2 6 1 3 1011.6 1011.5 0.0
01/07:00pm 29.5 35.0 23.4 69 4.2 CALM 0 6 0 3 1011.1 1011.0 0.0
01/06:30pm 30.8 35.3 23.7 66 4.9 ENE 6 7 3 4 1010.7 1010.6 0.0
01/06:00pm 32.4 36.6 23.1 58 6.4 ENE 6 9 3 5 1010.4 1010.3 0.0
01/05:30pm 32.9 36.3 22.7 55 7.0 E 9 13 5 7 1010.1 1010.0 0.0
01/05:00pm 34.2 37.1 23.2 52 7.6 ESE 13 19 7 10 1009.9 1009.8 0.0
01/04:30pm 34.5 37.2 22.9 51 8.0 E 13 24 7 13 1009.8 1009.7 0.0
01/04:00pm 35.3 38.3 23.3 50 8.4 ENE 13 24 7 13 1009.7 1009.6 0.0
01/03:30pm 35.4 38.4 23.4 50 8.4 E 13 22 7 12 1009.8 1009.7 0.0
01/03:00pm 35.3 38.1 23.0 49 8.5 ESE 13 24 7 13 1009.8 1009.7 0.0
01/02:30pm 35.8 38.9 24.1 51 8.2 E 15 26 8 14 1010.1 1010.0 0.0
01/02:00pm 34.6 37.0 23.0 51 8.0 ENE 15 24 8 13 1010.5 1010.4 0.0
01/01:30pm 34.8 37.9 23.5 52 7.9 E 13 24 7 13 1010.9 1010.8 0.0
01/01:00pm 34.6 37.0 23.6 52 7.7 ENE 17 24 9 13 1011.5 1011.4 0.0
01/12:30pm 33.6 35.6 23.0 54 7.3 ENE 17 26 9 14 1012.1 1012.0 0.0
01/12:00pm 33.0 35.0 23.0 55 6.9 E 17 26 9 14 1012.6 1012.5 0.0
01/11:30am 32.9 34.9 23.0 56 6.8 E 17 24 9 13 1013.2 1013.1 0.0
01/11:00am 32.1 33.5 22.8 58 6.4 E 20 28 11 15 1013.8 1013.7 0.0
01/10:30am 31.7 34.0 22.7 59 6.2 E 15 26 8 14 1014.2 1014.1 0.0
01/10:00am 30.1 32.0 22.8 65 5.0 E 17 26 9 14 1014.4 1014.3 0.0
01/09:30am 29.3 31.6 23.5 71 4.0 E 17 28 9 15 1014.6 1014.5 0.0
01/09:00am 28.3 30.5 23.2 74 3.5 E 17 26 9 14 1014.6 1014.5 0.0
01/08:30am 27.5 31.5 23.7 80 2.6 ESE 9 15 5 8 1014.5 1014.4 0.0

Other Formats:

Comma delimited format used in spreadsheet applications
http://www.bom.gov.au/fwo/IDQ60801/IDQ60801.94268.axf

JavaScript Object Notation format (JSON) in row-major order
http://www.bom.gov.au/fwo/IDQ60801/IDQ60801.94268.json